sensor_id;sensor_type;location;lat;lon;timestamp;P1;durP1;ratioP1;P2;durP2;ratioP2
83893;SDS011;73920;51.902;6.374;2023-12-04T00:00:07;26.70;;;10.10;;
83893;SDS011;73920;51.902;6.374;2023-12-04T00:02:34;21.33;;;9.60;;
83893;SDS011;73920;51.902;6.374;2023-12-04T00:05:00;24.77;;;9.52;;
83893;SDS011;73920;51.902;6.374;2023-12-04T00:07:27;21.23;;;7.82;;
83893;SDS011;73920;51.902;6.374;2023-12-04T00:09:53;26.08;;;9.15;;
83893;SDS011;73920;51.902;6.374;2023-12-04T00:12:19;22.95;;;9.20;;
83893;SDS011;73920;51.902;6.374;2023-12-04T00:14:45;22.25;;;7.97;;
83893;SDS011;73920;51.902;6.374;2023-12-04T00:17:11;22.15;;;8.38;;
83893;SDS011;73920;51.902;6.374;2023-12-04T00:19:37;19.73;;;8.55;;
83893;SDS011;73920;51.902;6.374;2023-12-04T00:22:04;19.25;;;7.03;;
83893;SDS011;73920;51.902;6.374;2023-12-04T00:24:30;23.42;;;9.20;;
83893;SDS011;73920;51.902;6.374;2023-12-04T00:26:56;19.45;;;8.20;;
83893;SDS011;73920;51.902;6.374;2023-12-04T00:29:22;20.35;;;8.02;;
83893;SDS011;73920;51.902;6.374;2023-12-04T00:31:48;25.80;;;8.65;;
83893;SDS011;73920;51.902;6.374;2023-12-04T00:34:15;20.55;;;8.88;;
83893;SDS011;73920;51.902;6.374;2023-12-04T00:36:41;21.65;;;9.15;;
83893;SDS011;73920;51.902;6.374;2023-12-04T00:39:07;20.30;;;8.30;;
83893;SDS011;73920;51.902;6.374;2023-12-04T00:41:33;20.55;;;8.82;;
83893;SDS011;73920;51.902;6.374;2023-12-04T00:43:59;19.35;;;7.53;;
83893;SDS011;73920;51.902;6.374;2023-12-04T00:46:26;18.12;;;6.93;;
83893;SDS011;73920;51.902;6.374;2023-12-04T00:48:52;21.58;;;7.72;;
83893;SDS011;73920;51.902;6.374;2023-12-04T00:51:18;21.98;;;8.75;;
83893;SDS011;73920;51.902;6.374;2023-12-04T00:53:44;15.07;;;7.15;;
83893;SDS011;73920;51.902;6.374;2023-12-04T00:56:10;19.95;;;7.50;;
83893;SDS011;73920;51.902;6.374;2023-12-04T00:58:36;17.95;;;7.75;;
83893;SDS011;73920;51.902;6.374;2023-12-04T01:01:03;17.48;;;6.93;;
83893;SDS011;73920;51.902;6.374;2023-12-04T01:03:30;18.08;;;7.70;;
83893;SDS011;73920;51.902;6.374;2023-12-04T01:05:56;18.58;;;7.40;;
83893;SDS011;73920;51.902;6.374;2023-12-04T01:08:22;18.52;;;7.72;;
83893;SDS011;73920;51.902;6.374;2023-12-04T01:10:48;19.77;;;8.10;;
83893;SDS011;73920;51.902;6.374;2023-12-04T01:13:14;21.52;;;7.72;;
83893;SDS011;73920;51.902;6.374;2023-12-04T01:15:41;18.15;;;7.15;;
83893;SDS011;73920;51.902;6.374;2023-12-04T01:18:07;17.92;;;6.90;;
83893;SDS011;73920;51.902;6.374;2023-12-04T01:20:33;16.77;;;7.93;;
83893;SDS011;73920;51.902;6.374;2023-12-04T01:23:00;19.92;;;7.65;;
83893;SDS011;73920;51.902;6.374;2023-12-04T01:25:26;17.35;;;7.20;;
83893;SDS011;73920;51.902;6.374;2023-12-04T01:27:52;17.60;;;7.82;;
83893;SDS011;73920;51.902;6.374;2023-12-04T01:30:18;20.23;;;7.32;;
83893;SDS011;73920;51.902;6.374;2023-12-04T01:32:44;20.08;;;7.78;;
83893;SDS011;73920;51.902;6.374;2023-12-04T01:35:11;17.65;;;7.47;;
83893;SDS011;73920;51.902;6.374;2023-12-04T01:37:37;18.90;;;7.15;;
83893;SDS011;73920;51.902;6.374;2023-12-04T01:40:03;19.70;;;7.57;;
83893;SDS011;73920;51.902;6.374;2023-12-04T01:42:30;16.87;;;6.60;;
83893;SDS011;73920;51.902;6.374;2023-12-04T01:44:57;17.02;;;6.37;;
83893;SDS011;73920;51.902;6.374;2023-12-04T01:47:23;19.58;;;8.27;;
83893;SDS011;73920;51.902;6.374;2023-12-04T01:49:49;16.77;;;7.43;;
83893;SDS011;73920;51.902;6.374;2023-12-04T01:52:16;17.67;;;7.15;;
83893;SDS011;73920;51.902;6.374;2023-12-04T01:54:43;16.00;;;6.85;;
83893;SDS011;73920;51.902;6.374;2023-12-04T01:57:10;19.90;;;7.68;;
83893;SDS011;73920;51.902;6.374;2023-12-04T01:59:36;17.45;;;6.68;;
83893;SDS011;73920;51.902;6.374;2023-12-04T02:02:04;18.17;;;6.95;;
83893;SDS011;73920;51.902;6.374;2023-12-04T02:04:30;18.30;;;7.72;;
83893;SDS011;73920;51.902;6.374;2023-12-04T02:06:57;14.30;;;6.47;;
83893;SDS011;73920;51.902;6.374;2023-12-04T02:09:23;18.35;;;7.35;;
83893;SDS011;73920;51.902;6.374;2023-12-04T02:11:50;15.35;;;6.45;;
83893;SDS011;73920;51.902;6.374;2023-12-04T02:14:16;14.93;;;7.28;;
83893;SDS011;73920;51.902;6.374;2023-12-04T02:16:42;15.82;;;6.62;;
83893;SDS011;73920;51.902;6.374;2023-12-04T02:19:14;20.42;;;7.07;;
83893;SDS011;73920;51.902;6.374;2023-12-04T02:21:40;19.33;;;7.93;;
83893;SDS011;73920;51.902;6.374;2023-12-04T02:24:06;15.80;;;6.65;;
83893;SDS011;73920;51.902;6.374;2023-12-04T02:26:34;18.70;;;7.37;;
83893;SDS011;73920;51.902;6.374;2023-12-04T02:29:10;19.27;;;7.43;;
83893;SDS011;73920;51.902;6.374;2023-12-04T02:34:08;17.10;;;6.32;;
83893;SDS011;73920;51.902;6.374;2023-12-04T02:36:39;12.48;;;6.25;;
83893;SDS011;73920;51.902;6.374;2023-12-04T02:39:06;13.35;;;6.35;;
83893;SDS011;73920;51.902;6.374;2023-12-04T02:41:32;17.65;;;6.60;;
83893;SDS011;73920;51.902;6.374;2023-12-04T02:43:59;14.63;;;7.15;;
83893;SDS011;73920;51.902;6.374;2023-12-04T02:46:25;15.02;;;6.10;;
83893;SDS011;73920;51.902;6.374;2023-12-04T02:48:51;13.00;;;6.15;;
83893;SDS011;73920;51.902;6.374;2023-12-04T02:51:17;13.95;;;6.60;;
83893;SDS011;73920;51.902;6.374;2023-12-04T02:53:44;16.45;;;6.53;;
83893;SDS011;73920;51.902;6.374;2023-12-04T02:56:10;12.63;;;5.78;;
83893;SDS011;73920;51.902;6.374;2023-12-04T02:58:36;15.48;;;6.35;;
83893;SDS011;73920;51.902;6.374;2023-12-04T03:01:03;16.05;;;6.75;;
83893;SDS011;73920;51.902;6.374;2023-12-04T03:03:30;16.98;;;6.65;;
83893;SDS011;73920;51.902;6.374;2023-12-04T03:05:56;13.70;;;5.57;;
83893;SDS011;73920;51.902;6.374;2023-12-04T03:08:22;16.50;;;5.80;;
83893;SDS011;73920;51.902;6.374;2023-12-04T03:10:48;14.45;;;6.45;;
83893;SDS011;73920;51.902;6.374;2023-12-04T03:13:14;16.23;;;6.45;;
83893;SDS011;73920;51.902;6.374;2023-12-04T03:15:40;15.23;;;5.60;;
83893;SDS011;73920;51.902;6.374;2023-12-04T03:18:07;16.23;;;6.15;;
83893;SDS011;73920;51.902;6.374;2023-12-04T03:20:33;13.43;;;5.95;;
83893;SDS011;73920;51.902;6.374;2023-12-04T03:22:59;10.20;;;4.30;;
83893;SDS011;73920;51.902;6.374;2023-12-04T03:25:25;14.18;;;6.32;;
83893;SDS011;73920;51.902;6.374;2023-12-04T03:27:51;14.55;;;6.03;;
83893;SDS011;73920;51.902;6.374;2023-12-04T03:30:18;16.87;;;6.47;;
83893;SDS011;73920;51.902;6.374;2023-12-04T03:32:44;12.68;;;5.97;;
83893;SDS011;73920;51.902;6.374;2023-12-04T03:35:10;14.60;;;5.60;;
83893;SDS011;73920;51.902;6.374;2023-12-04T03:37:36;14.55;;;6.25;;
83893;SDS011;73920;51.902;6.374;2023-12-04T03:40:03;13.07;;;5.00;;
83893;SDS011;73920;51.902;6.374;2023-12-04T03:42:30;13.25;;;6.07;;
83893;SDS011;73920;51.902;6.374;2023-12-04T03:44:56;11.68;;;5.78;;
83893;SDS011;73920;51.902;6.374;2023-12-04T03:47:22;12.40;;;5.60;;
83893;SDS011;73920;51.902;6.374;2023-12-04T03:49:49;13.40;;;5.82;;
83893;SDS011;73920;51.902;6.374;2023-12-04T03:52:15;13.80;;;5.43;;
83893;SDS011;73920;51.902;6.374;2023-12-04T03:54:41;15.18;;;5.95;;
83893;SDS011;73920;51.902;6.374;2023-12-04T03:57:07;12.65;;;5.25;;
83893;SDS011;73920;51.902;6.374;2023-12-04T03:59:33;14.73;;;5.60;;
83893;SDS011;73920;51.902;6.374;2023-12-04T04:01:59;13.68;;;6.15;;
83893;SDS011;73920;51.902;6.374;2023-12-04T04:04:26;13.32;;;5.37;;
83893;SDS011;73920;51.902;6.374;2023-12-04T04:06:52;12.82;;;5.37;;
83893;SDS011;73920;51.902;6.374;2023-12-04T04:09:18;14.77;;;6.43;;
83893;SDS011;73920;51.902;6.374;2023-12-04T04:11:44;13.38;;;5.32;;
83893;SDS011;73920;51.902;6.374;2023-12-04T04:14:11;12.02;;;5.70;;
83893;SDS011;73920;51.902;6.374;2023-12-04T04:16:37;12.05;;;5.95;;
83893;SDS011;73920;51.902;6.374;2023-12-04T04:19:03;12.98;;;5.12;;
83893;SDS011;73920;51.902;6.374;2023-12-04T04:21:30;12.10;;;5.30;;
83893;SDS011;73920;51.902;6.374;2023-12-04T04:23:57;12.40;;;6.10;;
83893;SDS011;73920;51.902;6.374;2023-12-04T04:26:23;12.98;;;5.62;;
83893;SDS011;73920;51.902;6.374;2023-12-04T04:28:49;12.80;;;5.25;;
83893;SDS011;73920;51.902;6.374;2023-12-04T04:31:15;13.62;;;5.45;;
83893;SDS011;73920;51.902;6.374;2023-12-04T04:33:41;11.35;;;5.35;;
83893;SDS011;73920;51.902;6.374;2023-12-04T04:36:09;12.98;;;5.30;;
83893;SDS011;73920;51.902;6.374;2023-12-04T04:38:35;10.40;;;4.22;;
83893;SDS011;73920;51.902;6.374;2023-12-04T04:41:02;12.55;;;5.07;;
83893;SDS011;73920;51.902;6.374;2023-12-04T04:43:28;9.35;;;4.43;;
83893;SDS011;73920;51.902;6.374;2023-12-04T04:45:55;10.90;;;4.80;;
83893;SDS011;73920;51.902;6.374;2023-12-04T04:48:21;12.43;;;5.07;;
83893;SDS011;73920;51.902;6.374;2023-12-04T04:50:47;11.48;;;5.40;;
83893;SDS011;73920;51.902;6.374;2023-12-04T04:53:13;10.57;;;4.82;;
83893;SDS011;73920;51.902;6.374;2023-12-04T04:55:39;11.77;;;5.37;;
83893;SDS011;73920;51.902;6.374;2023-12-04T04:58:05;10.85;;;4.47;;
83893;SDS011;73920;51.902;6.374;2023-12-04T05:00:32;9.90;;;4.70;;
83893;SDS011;73920;51.902;6.374;2023-12-04T05:02:59;9.60;;;4.60;;
83893;SDS011;73920;51.902;6.374;2023-12-04T05:05:25;10.40;;;4.18;;
83893;SDS011;73920;51.902;6.374;2023-12-04T05:07:51;9.77;;;5.03;;
83893;SDS011;73920;51.902;6.374;2023-12-04T05:10:18;9.43;;;4.78;;
83893;SDS011;73920;51.902;6.374;2023-12-04T05:12:44;8.43;;;4.22;;
83893;SDS011;73920;51.902;6.374;2023-12-04T05:15:10;7.28;;;3.95;;
83893;SDS011;73920;51.902;6.374;2023-12-04T05:17:36;11.48;;;4.87;;
83893;SDS011;73920;51.902;6.374;2023-12-04T05:20:03;8.73;;;4.00;;
83893;SDS011;73920;51.902;6.374;2023-12-04T05:22:30;10.35;;;4.55;;
83893;SDS011;73920;51.902;6.374;2023-12-04T05:24:56;11.75;;;4.50;;
83893;SDS011;73920;51.902;6.374;2023-12-04T05:27:22;10.65;;;4.35;;
83893;SDS011;73920;51.902;6.374;2023-12-04T05:29:48;9.55;;;4.15;;
83893;SDS011;73920;51.902;6.374;2023-12-04T05:32:15;8.27;;;3.55;;
83893;SDS011;73920;51.902;6.374;2023-12-04T05:34:41;9.30;;;4.12;;
83893;SDS011;73920;51.902;6.374;2023-12-04T05:37:07;10.25;;;3.60;;
83893;SDS011;73920;51.902;6.374;2023-12-04T05:39:33;11.38;;;3.97;;
83893;SDS011;73920;51.902;6.374;2023-12-04T05:41:59;9.50;;;4.32;;
83893;SDS011;73920;51.902;6.374;2023-12-04T05:44:26;9.45;;;4.00;;
83893;SDS011;73920;51.902;6.374;2023-12-04T05:46:52;8.88;;;3.72;;
83893;SDS011;73920;51.902;6.374;2023-12-04T05:49:18;8.45;;;3.28;;
83893;SDS011;73920;51.902;6.374;2023-12-04T05:51:44;8.50;;;3.80;;
83893;SDS011;73920;51.902;6.374;2023-12-04T05:54:10;7.97;;;3.80;;
83893;SDS011;73920;51.902;6.374;2023-12-04T05:56:36;9.85;;;4.05;;
83893;SDS011;73920;51.902;6.374;2023-12-04T05:59:03;8.65;;;3.90;;
83893;SDS011;73920;51.902;6.374;2023-12-04T06:01:29;6.65;;;3.55;;
83893;SDS011;73920;51.902;6.374;2023-12-04T06:03:55;10.35;;;4.22;;
83893;SDS011;73920;51.902;6.374;2023-12-04T06:06:21;8.30;;;3.33;;
83893;SDS011;73920;51.902;6.374;2023-12-04T06:08:47;9.90;;;3.70;;
83893;SDS011;73920;51.902;6.374;2023-12-04T06:11:13;6.60;;;4.00;;
83893;SDS011;73920;51.902;6.374;2023-12-04T06:13:40;7.18;;;3.22;;
83893;SDS011;73920;51.902;6.374;2023-12-04T06:16:06;9.98;;;3.87;;
83893;SDS011;73920;51.902;6.374;2023-12-04T06:18:33;7.15;;;3.70;;
83893;SDS011;73920;51.902;6.374;2023-12-04T06:20:59;10.07;;;4.35;;
83893;SDS011;73920;51.902;6.374;2023-12-04T06:23:26;8.45;;;3.40;;
83893;SDS011;73920;51.902;6.374;2023-12-04T06:25:53;8.43;;;4.00;;
83893;SDS011;73920;51.902;6.374;2023-12-04T06:28:20;6.43;;;3.60;;
83893;SDS011;73920;51.902;6.374;2023-12-04T06:30:47;7.40;;;3.55;;
83893;SDS011;73920;51.902;6.374;2023-12-04T06:33:13;7.72;;;2.60;;
83893;SDS011;73920;51.902;6.374;2023-12-04T06:35:40;9.32;;;3.95;;
83893;SDS011;73920;51.902;6.374;2023-12-04T06:38:07;9.57;;;3.58;;
83893;SDS011;73920;51.902;6.374;2023-12-04T06:40:34;6.25;;;3.30;;
83893;SDS011;73920;51.902;6.374;2023-12-04T06:43:01;6.70;;;3.75;;
83893;SDS011;73920;51.902;6.374;2023-12-04T06:45:27;7.57;;;4.12;;
83893;SDS011;73920;51.902;6.374;2023-12-04T06:47:54;8.63;;;3.70;;
83893;SDS011;73920;51.902;6.374;2023-12-04T06:50:22;10.18;;;3.50;;
83893;SDS011;73920;51.902;6.374;2023-12-04T06:52:48;6.22;;;3.12;;
83893;SDS011;73920;51.902;6.374;2023-12-04T06:55:14;6.10;;;3.03;;
83893;SDS011;73920;51.902;6.374;2023-12-04T06:57:41;7.90;;;3.28;;
83893;SDS011;73920;51.902;6.374;2023-12-04T07:00:10;7.57;;;3.03;;
83893;SDS011;73920;51.902;6.374;2023-12-04T07:02:37;7.68;;;3.10;;
83893;SDS011;73920;51.902;6.374;2023-12-04T07:05:04;8.05;;;3.45;;
83893;SDS011;73920;51.902;6.374;2023-12-04T07:07:31;5.78;;;3.30;;
83893;SDS011;73920;51.902;6.374;2023-12-04T07:09:57;8.82;;;3.37;;
83893;SDS011;73920;51.902;6.374;2023-12-04T07:12:23;8.55;;;3.30;;
83893;SDS011;73920;51.902;6.374;2023-12-04T07:14:50;8.15;;;3.20;;
83893;SDS011;73920;51.902;6.374;2023-12-04T07:17:16;6.90;;;3.35;;
83893;SDS011;73920;51.902;6.374;2023-12-04T07:19:42;8.52;;;3.33;;
83893;SDS011;73920;51.902;6.374;2023-12-04T07:22:08;5.82;;;2.92;;
83893;SDS011;73920;51.902;6.374;2023-12-04T07:24:34;8.35;;;3.30;;
83893;SDS011;73920;51.902;6.374;2023-12-04T07:27:00;9.70;;;4.10;;
83893;SDS011;73920;51.902;6.374;2023-12-04T07:29:27;8.05;;;4.35;;
83893;SDS011;73920;51.902;6.374;2023-12-04T07:31:53;9.23;;;4.60;;
83893;SDS011;73920;51.902;6.374;2023-12-04T07:34:19;6.53;;;3.40;;
83893;SDS011;73920;51.902;6.374;2023-12-04T07:36:45;9.68;;;4.40;;
83893;SDS011;73920;51.902;6.374;2023-12-04T07:39:11;8.10;;;3.72;;
83893;SDS011;73920;51.902;6.374;2023-12-04T07:41:38;7.37;;;3.30;;
83893;SDS011;73920;51.902;6.374;2023-12-04T07:44:04;7.37;;;3.50;;
83893;SDS011;73920;51.902;6.374;2023-12-04T07:46:30;6.22;;;3.17;;
83893;SDS011;73920;51.902;6.374;2023-12-04T07:48:56;9.65;;;3.35;;
83893;SDS011;73920;51.902;6.374;2023-12-04T07:51:22;6.97;;;3.15;;
83893;SDS011;73920;51.902;6.374;2023-12-04T07:53:49;7.53;;;3.60;;
83893;SDS011;73920;51.902;6.374;2023-12-04T07:56:15;8.27;;;3.83;;
83893;SDS011;73920;51.902;6.374;2023-12-04T07:58:41;8.48;;;4.18;;
83893;SDS011;73920;51.902;6.374;2023-12-04T08:01:07;7.28;;;3.33;;
83893;SDS011;73920;51.902;6.374;2023-12-04T08:03:33;10.52;;;3.80;;
83893;SDS011;73920;51.902;6.374;2023-12-04T08:06:00;8.57;;;3.55;;
83893;SDS011;73920;51.902;6.374;2023-12-04T08:08:26;8.25;;;3.42;;
83893;SDS011;73920;51.902;6.374;2023-12-04T08:10:52;6.87;;;3.47;;
83893;SDS011;73920;51.902;6.374;2023-12-04T08:13:18;6.75;;;3.40;;
83893;SDS011;73920;51.902;6.374;2023-12-04T08:15:44;7.32;;;2.87;;
83893;SDS011;73920;51.902;6.374;2023-12-04T08:18:11;8.80;;;3.20;;
83893;SDS011;73920;51.902;6.374;2023-12-04T08:20:37;6.18;;;2.97;;
83893;SDS011;73920;51.902;6.374;2023-12-04T08:23:03;9.90;;;3.50;;
83893;SDS011;73920;51.902;6.374;2023-12-04T08:25:29;6.70;;;3.37;;
83893;SDS011;73920;51.902;6.374;2023-12-04T08:27:55;10.73;;;4.32;;
83893;SDS011;73920;51.902;6.374;2023-12-04T08:30:23;9.52;;;3.60;;
83893;SDS011;73920;51.902;6.374;2023-12-04T08:32:49;7.90;;;3.53;;
83893;SDS011;73920;51.902;6.374;2023-12-04T08:35:15;8.40;;;3.33;;
83893;SDS011;73920;51.902;6.374;2023-12-04T08:37:42;8.82;;;3.58;;
83893;SDS011;73920;51.902;6.374;2023-12-04T08:40:08;7.65;;;3.37;;
83893;SDS011;73920;51.902;6.374;2023-12-04T08:42:35;10.63;;;3.90;;
83893;SDS011;73920;51.902;6.374;2023-12-04T08:45:01;8.80;;;4.53;;
83893;SDS011;73920;51.902;6.374;2023-12-04T08:47:28;12.35;;;4.57;;
83893;SDS011;73920;51.902;6.374;2023-12-04T08:49:54;9.43;;;4.82;;
83893;SDS011;73920;51.902;6.374;2023-12-04T08:52:20;9.98;;;4.65;;
83893;SDS011;73920;51.902;6.374;2023-12-04T08:54:47;8.45;;;3.90;;
83893;SDS011;73920;51.902;6.374;2023-12-04T08:57:13;9.25;;;4.35;;
83893;SDS011;73920;51.902;6.374;2023-12-04T08:59:39;9.02;;;4.25;;
83893;SDS011;73920;51.902;6.374;2023-12-04T09:02:06;9.52;;;4.30;;
83893;SDS011;73920;51.902;6.374;2023-12-04T09:04:32;9.27;;;3.97;;
83893;SDS011;73920;51.902;6.374;2023-12-04T09:06:59;12.70;;;5.12;;
83893;SDS011;73920;51.902;6.374;2023-12-04T09:09:25;10.27;;;4.68;;
83893;SDS011;73920;51.902;6.374;2023-12-04T09:11:51;9.52;;;4.82;;
83893;SDS011;73920;51.902;6.374;2023-12-04T09:14:17;13.80;;;4.40;;
83893;SDS011;73920;51.902;6.374;2023-12-04T09:16:43;10.13;;;4.68;;
83893;SDS011;73920;51.902;6.374;2023-12-04T09:19:10;10.05;;;4.55;;
83893;SDS011;73920;51.902;6.374;2023-12-04T09:21:36;9.32;;;4.68;;
83893;SDS011;73920;51.902;6.374;2023-12-04T09:24:02;10.68;;;4.22;;
83893;SDS011;73920;51.902;6.374;2023-12-04T09:26:28;10.40;;;4.47;;
83893;SDS011;73920;51.902;6.374;2023-12-04T09:28:55;8.65;;;4.53;;
83893;SDS011;73920;51.902;6.374;2023-12-04T09:31:21;7.55;;;4.18;;
83893;SDS011;73920;51.902;6.374;2023-12-04T09:33:47;10.32;;;4.30;;
83893;SDS011;73920;51.902;6.374;2023-12-04T09:36:13;7.95;;;4.20;;
83893;SDS011;73920;51.902;6.374;2023-12-04T09:38:39;11.23;;;4.47;;
83893;SDS011;73920;51.902;6.374;2023-12-04T09:41:06;8.63;;;4.20;;
83893;SDS011;73920;51.902;6.374;2023-12-04T09:43:35;9.60;;;4.40;;
83893;SDS011;73920;51.902;6.374;2023-12-04T09:46:02;10.85;;;4.47;;
83893;SDS011;73920;51.902;6.374;2023-12-04T09:48:29;12.15;;;5.10;;
83893;SDS011;73920;51.902;6.374;2023-12-04T09:50:58;9.63;;;4.47;;
83893;SDS011;73920;51.902;6.374;2023-12-04T09:53:26;9.60;;;4.68;;
83893;SDS011;73920;51.902;6.374;2023-12-04T09:55:54;11.60;;;4.93;;
83893;SDS011;73920;51.902;6.374;2023-12-04T09:58:23;9.85;;;4.40;;
83893;SDS011;73920;51.902;6.374;2023-12-04T10:00:53;10.40;;;5.07;;
83893;SDS011;73920;51.902;6.374;2023-12-04T10:03:20;9.82;;;4.82;;
83893;SDS011;73920;51.902;6.374;2023-12-04T10:05:47;6.82;;;3.47;;
83893;SDS011;73920;51.902;6.374;2023-12-04T10:08:14;9.98;;;4.50;;
83893;SDS011;73920;51.902;6.374;2023-12-04T10:10:40;8.27;;;4.18;;
83893;SDS011;73920;51.902;6.374;2023-12-04T10:13:06;8.60;;;4.12;;
83893;SDS011;73920;51.902;6.374;2023-12-04T10:15:32;7.28;;;3.42;;
83893;SDS011;73920;51.902;6.374;2023-12-04T10:17:59;7.47;;;3.85;;
83893;SDS011;73920;51.902;6.374;2023-12-04T10:20:25;8.60;;;4.28;;
83893;SDS011;73920;51.902;6.374;2023-12-04T10:22:57;8.40;;;4.18;;
83893;SDS011;73920;51.902;6.374;2023-12-04T10:25:26;11.10;;;5.32;;
83893;SDS011;73920;51.902;6.374;2023-12-04T10:27:54;10.35;;;4.12;;
83893;SDS011;73920;51.902;6.374;2023-12-04T10:30:32;8.90;;;4.40;;
83893;SDS011;73920;51.902;6.374;2023-12-04T10:32:59;10.00;;;4.28;;
83893;SDS011;73920;51.902;6.374;2023-12-04T10:37:59;6.90;;;3.70;;
83893;SDS011;73920;51.902;6.374;2023-12-04T10:40:27;7.18;;;3.58;;
83893;SDS011;73920;51.902;6.374;2023-12-04T10:45:38;7.45;;;4.18;;
83893;SDS011;73920;51.902;6.374;2023-12-04T10:48:05;6.95;;;2.78;;
83893;SDS011;73920;51.902;6.374;2023-12-04T10:50:32;8.95;;;4.18;;
83893;SDS011;73920;51.902;6.374;2023-12-04T10:53:03;8.85;;;4.30;;
83893;SDS011;73920;51.902;6.374;2023-12-04T10:55:30;8.82;;;3.35;;
83893;SDS011;73920;51.902;6.374;2023-12-04T10:57:57;7.82;;;3.78;;
83893;SDS011;73920;51.902;6.374;2023-12-04T11:00:27;7.62;;;3.72;;
83893;SDS011;73920;51.902;6.374;2023-12-04T11:02:55;8.02;;;3.92;;
83893;SDS011;73920;51.902;6.374;2023-12-04T11:05:27;9.48;;;3.83;;
83893;SDS011;73920;51.902;6.374;2023-12-04T11:07:53;8.48;;;3.65;;
83893;SDS011;73920;51.902;6.374;2023-12-04T11:10:25;6.45;;;3.40;;
83893;SDS011;73920;51.902;6.374;2023-12-04T11:13:00;9.18;;;3.50;;
83893;SDS011;73920;51.902;6.374;2023-12-04T11:15:31;10.57;;;3.83;;
83893;SDS011;73920;51.902;6.374;2023-12-04T11:18:01;7.57;;;3.50;;
83893;SDS011;73920;51.902;6.374;2023-12-04T11:20:28;5.47;;;3.92;;
83893;SDS011;73920;51.902;6.374;2023-12-04T11:22:59;4.45;;;2.67;;
83893;SDS011;73920;51.902;6.374;2023-12-04T11:25:28;6.87;;;3.95;;
83893;SDS011;73920;51.902;6.374;2023-12-04T11:27:56;8.98;;;3.42;;
83893;SDS011;73920;51.902;6.374;2023-12-04T11:30:22;10.38;;;4.18;;
83893;SDS011;73920;51.902;6.374;2023-12-04T11:32:49;11.57;;;5.87;;
83893;SDS011;73920;51.902;6.374;2023-12-04T11:35:15;7.55;;;3.95;;
83893;SDS011;73920;51.902;6.374;2023-12-04T11:37:46;11.18;;;4.85;;
83893;SDS011;73920;51.902;6.374;2023-12-04T11:40:14;14.00;;;4.40;;
83893;SDS011;73920;51.902;6.374;2023-12-04T11:42:41;10.13;;;4.90;;
83893;SDS011;73920;51.902;6.374;2023-12-04T11:45:08;8.15;;;4.45;;
83893;SDS011;73920;51.902;6.374;2023-12-04T11:50:11;8.80;;;4.05;;
83893;SDS011;73920;51.902;6.374;2023-12-04T11:52:38;9.85;;;4.70;;
83893;SDS011;73920;51.902;6.374;2023-12-04T11:55:04;9.82;;;4.07;;
83893;SDS011;73920;51.902;6.374;2023-12-04T11:57:35;9.68;;;5.43;;
83893;SDS011;73920;51.902;6.374;2023-12-04T12:02:38;13.07;;;5.82;;
83893;SDS011;73920;51.902;6.374;2023-12-04T12:05:06;10.18;;;4.45;;
83893;SDS011;73920;51.902;6.374;2023-12-04T12:07:33;7.03;;;4.07;;
83893;SDS011;73920;51.902;6.374;2023-12-04T12:10:00;10.07;;;4.05;;
83893;SDS011;73920;51.902;6.374;2023-12-04T12:12:27;8.05;;;3.62;;
83893;SDS011;73920;51.902;6.374;2023-12-04T12:14:54;8.55;;;4.03;;
83893;SDS011;73920;51.902;6.374;2023-12-04T12:17:20;8.38;;;3.22;;
83893;SDS011;73920;51.902;6.374;2023-12-04T12:19:46;14.85;;;10.95;;
83893;SDS011;73920;51.902;6.374;2023-12-04T12:22:12;6.55;;;3.08;;
83893;SDS011;73920;51.902;6.374;2023-12-04T12:24:39;7.28;;;3.15;;
83893;SDS011;73920;51.902;6.374;2023-12-04T12:27:05;7.10;;;3.17;;
83893;SDS011;73920;51.902;6.374;2023-12-04T12:29:32;5.90;;;3.30;;
83893;SDS011;73920;51.902;6.374;2023-12-04T12:31:58;6.28;;;3.55;;
83893;SDS011;73920;51.902;6.374;2023-12-04T12:34:24;5.75;;;3.28;;
83893;SDS011;73920;51.902;6.374;2023-12-04T12:36:50;8.25;;;3.17;;
83893;SDS011;73920;51.902;6.374;2023-12-04T12:39:16;6.93;;;3.40;;
83893;SDS011;73920;51.902;6.374;2023-12-04T12:44:14;6.43;;;3.33;;
83893;SDS011;73920;51.902;6.374;2023-12-04T12:46:41;7.55;;;3.58;;
83893;SDS011;73920;51.902;6.374;2023-12-04T12:49:07;6.57;;;3.60;;
83893;SDS011;73920;51.902;6.374;2023-12-04T12:51:33;10.05;;;4.07;;
83893;SDS011;73920;51.902;6.374;2023-12-04T12:53:59;10.85;;;3.83;;
83893;SDS011;73920;51.902;6.374;2023-12-04T12:56:26;8.65;;;3.40;;
83893;SDS011;73920;51.902;6.374;2023-12-04T12:58:55;8.73;;;3.30;;
83893;SDS011;73920;51.902;6.374;2023-12-04T13:01:24;8.63;;;3.03;;
83893;SDS011;73920;51.902;6.374;2023-12-04T13:06:21;8.65;;;3.80;;
83893;SDS011;73920;51.902;6.374;2023-12-04T13:08:47;8.10;;;3.65;;
83893;SDS011;73920;51.902;6.374;2023-12-04T13:11:14;8.63;;;3.30;;
83893;SDS011;73920;51.902;6.374;2023-12-04T13:13:40;6.45;;;3.28;;
83893;SDS011;73920;51.902;6.374;2023-12-04T13:16:06;8.65;;;3.62;;
83893;SDS011;73920;51.902;6.374;2023-12-04T13:18:33;8.05;;;3.50;;
83893;SDS011;73920;51.902;6.374;2023-12-04T13:20:59;8.93;;;3.30;;
83893;SDS011;73920;51.902;6.374;2023-12-04T13:23:26;7.97;;;3.53;;
83893;SDS011;73920;51.902;6.374;2023-12-04T13:25:53;7.15;;;3.50;;
83893;SDS011;73920;51.902;6.374;2023-12-04T13:28:19;10.18;;;5.00;;
83893;SDS011;73920;51.902;6.374;2023-12-04T13:30:46;15.00;;;6.72;;
83893;SDS011;73920;51.902;6.374;2023-12-04T13:33:12;8.48;;;4.00;;
83893;SDS011;73920;51.902;6.374;2023-12-04T13:35:38;15.48;;;6.22;;
83893;SDS011;73920;51.902;6.374;2023-12-04T13:38:04;7.65;;;3.40;;
83893;SDS011;73920;51.902;6.374;2023-12-04T13:40:30;8.48;;;3.70;;
83893;SDS011;73920;51.902;6.374;2023-12-04T13:42:57;6.55;;;3.62;;
83893;SDS011;73920;51.902;6.374;2023-12-04T13:45:23;7.70;;;4.28;;
83893;SDS011;73920;51.902;6.374;2023-12-04T13:47:49;12.02;;;4.45;;
83893;SDS011;73920;51.902;6.374;2023-12-04T13:50:16;7.30;;;4.60;;
83893;SDS011;73920;51.902;6.374;2023-12-04T13:52:43;8.38;;;3.92;;
83893;SDS011;73920;51.902;6.374;2023-12-04T13:55:09;7.85;;;4.12;;
83893;SDS011;73920;51.902;6.374;2023-12-04T13:57:36;8.18;;;4.10;;
83893;SDS011;73920;51.902;6.374;2023-12-04T14:00:02;7.00;;;3.60;;
83893;SDS011;73920;51.902;6.374;2023-12-04T14:02:29;7.80;;;3.92;;
83893;SDS011;73920;51.902;6.374;2023-12-04T14:04:55;8.75;;;3.78;;
83893;SDS011;73920;51.902;6.374;2023-12-04T14:09:59;10.30;;;4.72;;
83893;SDS011;73920;51.902;6.374;2023-12-04T14:12:25;8.98;;;4.43;;
83893;SDS011;73920;51.902;6.374;2023-12-04T14:14:51;8.18;;;4.20;;
83893;SDS011;73920;51.902;6.374;2023-12-04T14:17:17;8.70;;;4.05;;
83893;SDS011;73920;51.902;6.374;2023-12-04T14:19:43;9.23;;;4.32;;
83893;SDS011;73920;51.902;6.374;2023-12-04T14:22:09;7.78;;;4.30;;
83893;SDS011;73920;51.902;6.374;2023-12-04T14:24:36;7.72;;;3.90;;
83893;SDS011;73920;51.902;6.374;2023-12-04T14:27:02;14.10;;;4.75;;
83893;SDS011;73920;51.902;6.374;2023-12-04T14:29:28;7.00;;;3.55;;
83893;SDS011;73920;51.902;6.374;2023-12-04T14:31:54;9.32;;;4.62;;
83893;SDS011;73920;51.902;6.374;2023-12-04T14:34:21;6.35;;;3.97;;
83893;SDS011;73920;51.902;6.374;2023-12-04T14:36:47;7.25;;;3.97;;
83893;SDS011;73920;51.902;6.374;2023-12-04T14:39:13;6.87;;;3.60;;
83893;SDS011;73920;51.902;6.374;2023-12-04T14:41:39;8.68;;;4.25;;
83893;SDS011;73920;51.902;6.374;2023-12-04T14:44:05;9.18;;;3.70;;
83893;SDS011;73920;51.902;6.374;2023-12-04T14:46:32;8.50;;;3.35;;
83893;SDS011;73920;51.902;6.374;2023-12-04T14:48:58;10.82;;;4.37;;
83893;SDS011;73920;51.902;6.374;2023-12-04T14:51:24;7.68;;;4.45;;
83893;SDS011;73920;51.902;6.374;2023-12-04T14:53:50;8.15;;;3.53;;
83893;SDS011;73920;51.902;6.374;2023-12-04T14:56:17;7.55;;;3.67;;